Airfield :
LOGIN :

Register | Disclaimer

   EN    FR    IT 

 










Legend :    VFR   Marginal VFR   IFR   Intensive IFR   Very Intensive IFR
Visi :
Ceiling :
>= 8 km
>= 3000ft
5 to 8 km
1000 to 3000 ft
1500m to 5 km
500 to 1000 ft
800 to 1500m
200 to 500 ft
< 800m
< 200 ft
Symbols :   Thunderstorms  Fog  Heavy snow  Heavy precipitations  Wind > 20 kt
SIGMETs :     Misc.  Thunderstorms  Icing  Turbulence  Mountain Waves  Volcanic Ashes






- Airport Elevation : 42 ft
- IATA code : LMO


EGQS - Lossiemouth

CURRENT METAR :
  • 241850Z 09006KT 9999 VCSH FEW030 BKN055 13/05 Q1001 TEMPO 7000 SHRA SCT018 RMK BLU TEMPO WHT

EXPIRED METARs :
  • 241820Z 10006KT 9999 FEW030 13/05 Q1001 TEMPO 7000 SHRA RMK BLU TEMPO WHT
  • 241750Z 10007KT 9999 FEW030 13/05 Q1000 NOSIG RMK BLU BLU
  • 241720Z 05007KT 9999 FEW030 BKN055 13/05 Q1001 NOSIG RMK BLU BLU
  • 241650Z 04007KT 9999 FEW030 SCT060 13/06 Q1001 NOSIG RMK BLU BLU
  • 241620Z 04008KT 9999 FEW030 13/08 Q1001 NOSIG RMK BLU BLU

TAF TAF EGQS
Valid from the 24 at 18:00 until the 25 at 12:00 UTC


241652Z 2418/2512 04007KT 9999 FEW018 BKN030
PROB30
TEMPO 2418/2422 6000 SHRA SCT018
PROB30
TEMPO 2508/2512 6000 SHRA SCT022
BECMG 2509/2512 22015KT



MET'MAP, your aeronautical weather chart ! - Copyright ORBIFLY December 2007 - Disclaimer

ORBIFLY MET'MAP TEAM :

Programming & Development : Alexandra Zaïnal
Original concept : Baudouin d'Aumeries
Technical & hardware support : Manuel Goepfert
Assistance : Marc-Olivier Méhu

Contact : metmap@orbifly.com




SOURCES & CREDITS :

   NOAA